createdAt,value
2019-01-24T00:00:19.722Z,62.93
2019-01-24T00:02:48.112Z,63.15
2019-01-24T00:05:16.573Z,63.52
2019-01-24T00:07:45.280Z,63.27
2019-01-24T00:10:13.902Z,63.35
2019-01-24T00:12:42.318Z,62.37
2019-01-24T00:15:11.460Z,62.23
2019-01-24T00:17:40.220Z,62.10
2019-01-24T00:20:11.260Z,61.60
2019-01-24T00:22:39.681Z,61.73
2019-01-24T00:25:09.316Z,61.95
2019-01-24T00:27:37.710Z,61.70
2019-01-24T00:30:14.416Z,62.59
2019-01-24T00:32:42.882Z,62.76
2019-01-24T00:35:11.830Z,62.58
2019-01-24T00:37:40.568Z,62.55
2019-01-24T00:40:12.320Z,63.59
2019-01-24T00:42:40.821Z,63.92
2019-01-24T00:45:09.681Z,64.07
2019-01-24T00:47:38.227Z,63.86
2019-01-24T00:50:09.655Z,64.06
2019-01-24T00:52:38.052Z,63.76
2019-01-24T00:55:10.066Z,63.86
2019-01-24T00:57:38.760Z,64.07
2019-01-24T01:00:10.514Z,64.92
2019-01-24T01:02:39.131Z,64.57
2019-01-24T01:05:09.964Z,64.57
2019-01-24T01:07:39.280Z,64.96
2019-01-24T01:10:09.869Z,65.42
2019-01-24T01:12:38.268Z,64.74
2019-01-24T01:15:12.471Z,65.17
2019-01-24T01:17:40.960Z,64.66
2019-01-24T01:20:15.774Z,65.15
2019-01-24T01:22:44.531Z,65.58
2019-01-24T01:25:14.253Z,64.66
2019-01-24T01:27:42.753Z,65.14
2019-01-24T01:30:14.559Z,64.73
2019-01-24T01:32:43.030Z,64.87
2019-01-24T01:35:11.491Z,64.83
2019-01-24T01:37:40.188Z,64.62
2019-01-24T01:40:12.129Z,64.68
2019-01-24T01:42:40.578Z,63.80
2019-01-24T01:45:14.606Z,63.97
2019-01-24T01:47:43.430Z,63.84
2019-01-24T01:50:15.372Z,64.24
2019-01-24T01:52:43.839Z,64.54
2019-01-24T01:55:12.975Z,65.50
2019-01-24T01:57:41.759Z,66.48
2019-01-24T02:00:16.635Z,66.54
2019-01-24T02:02:45.353Z,66.67
2019-01-24T02:05:14.166Z,67.52
2019-01-24T02:07:42.834Z,67.31
2019-01-24T02:10:20.226Z,67.30
2019-01-24T02:12:48.867Z,67.96
2019-01-24T02:15:18.595Z,67.71
2019-01-24T02:17:47.614Z,68.01
2019-01-24T02:20:18.613Z,67.62
2019-01-24T02:22:47.525Z,68.20
2019-01-24T02:25:16.284Z,68.09
2019-01-24T02:27:44.747Z,67.87
2019-01-24T02:30:21.892Z,67.44
2019-01-24T02:32:50.386Z,66.82
2019-01-24T02:35:18.851Z,67.38
2019-01-24T02:37:47.694Z,67.96
2019-01-24T02:40:16.329Z,67.70
2019-01-24T02:42:44.729Z,67.92
2019-01-24T02:45:16.473Z,67.75
2019-01-24T02:47:45.357Z,67.14
2019-01-24T02:50:16.321Z,67.41
2019-01-24T02:52:44.726Z,67.26
2019-01-24T02:55:15.283Z,67.25
2019-01-24T02:57:43.855Z,66.82
2019-01-24T03:00:17.594Z,67.42
2019-01-24T03:02:45.983Z,67.02
2019-01-24T03:05:17.388Z,66.83
2019-01-24T03:07:46.144Z,67.18
2019-01-24T03:10:15.573Z,66.93
2019-01-24T03:12:44.029Z,66.86
2019-01-24T03:15:15.189Z,66.96
2019-01-24T03:17:43.605Z,66.79
2019-01-24T03:20:13.620Z,66.65
2019-01-24T03:22:42.039Z,66.92
2019-01-24T03:25:12.473Z,67.25
2019-01-24T03:27:40.935Z,67.00
2019-01-24T03:30:12.406Z,66.71
2019-01-24T03:32:41.247Z,67.37
2019-01-24T03:35:18.320Z,67.60
2019-01-24T03:37:46.795Z,67.09
2019-01-24T03:40:16.449Z,67.09
2019-01-24T03:42:45.022Z,67.44
2019-01-24T03:45:15.564Z,67.09
2019-01-24T03:47:44.161Z,67.19
2019-01-24T03:50:15.200Z,67.06
2019-01-24T03:52:44.175Z,66.84
2019-01-24T03:55:14.820Z,66.77
2019-01-24T03:57:43.229Z,66.85
2019-01-24T04:00:17.411Z,67.37
2019-01-24T04:02:45.883Z,66.89
2019-01-24T04:05:14.918Z,66.55
2019-01-24T04:07:43.485Z,66.77
2019-01-24T04:10:14.975Z,66.87
2019-01-24T04:12:43.379Z,66.51
2019-01-24T04:15:14.527Z,66.44
2019-01-24T04:17:42.990Z,65.46
2019-01-24T04:20:11.922Z,65.75
2019-01-24T04:22:40.566Z,65.36
2019-01-24T04:25:09.300Z,65.62
2019-01-24T04:27:37.709Z,64.67
2019-01-24T04:30:09.144Z,65.37
2019-01-24T04:32:37.554Z,64.98
2019-01-24T04:35:08.625Z,65.08
2019-01-24T04:37:37.098Z,65.29
2019-01-24T04:40:08.873Z,65.34
2019-01-24T04:42:37.870Z,65.29
2019-01-24T04:45:09.009Z,64.83
2019-01-24T04:47:37.804Z,64.79
2019-01-24T04:50:09.782Z,64.11
2019-01-24T04:52:38.181Z,64.50
2019-01-24T04:55:09.797Z,65.50
2019-01-24T04:57:38.222Z,65.86
2019-01-24T05:00:12.904Z,65.99
2019-01-24T05:02:41.590Z,66.33
2019-01-24T05:05:10.252Z,66.15
2019-01-24T05:07:38.626Z,65.77
2019-01-24T05:10:08.399Z,65.66
2019-01-24T05:12:36.801Z,65.38
2019-01-24T05:15:07.081Z,65.72
2019-01-24T05:17:35.753Z,65.43
2019-01-24T05:20:07.307Z,66.17
2019-01-24T05:22:35.789Z,66.06
2019-01-24T05:25:07.049Z,65.49
2019-01-24T05:27:35.445Z,66.34
2019-01-24T05:30:06.225Z,66.74
2019-01-24T05:32:35.142Z,67.32
2019-01-24T05:35:04.244Z,67.41
2019-01-24T05:37:32.631Z,66.86
2019-01-24T05:40:01.046Z,65.94
2019-01-24T05:42:29.441Z,65.63
2019-01-24T05:44:57.871Z,65.77
2019-01-24T05:47:26.577Z,65.74
2019-01-24T05:49:54.970Z,65.17
2019-01-24T05:52:23.358Z,65.88
2019-01-24T05:54:51.780Z,66.40
2019-01-24T05:57:20.185Z,65.34
2019-01-24T05:59:48.654Z,64.90
2019-01-24T06:02:17.045Z,64.53
2019-01-24T06:04:45.702Z,64.40
2019-01-24T06:07:14.209Z,64.45
2019-01-24T06:09:42.622Z,65.25
2019-01-24T06:12:11.767Z,65.86
2019-01-24T06:14:40.165Z,65.96
2019-01-24T06:17:08.660Z,66.34
2019-01-24T06:19:37.314Z,65.92
2019-01-24T06:22:06.145Z,65.96
2019-01-24T06:24:34.543Z,65.55
2019-01-24T06:27:02.930Z,66.71
2019-01-24T06:29:31.644Z,66.41
2019-01-24T06:32:00.253Z,66.13
2019-01-24T06:34:28.913Z,65.62
2019-01-24T06:36:57.319Z,65.36
2019-01-24T06:39:25.978Z,65.52
2019-01-24T06:41:54.768Z,65.52
2019-01-24T06:44:23.163Z,65.70
2019-01-24T06:46:51.564Z,65.44
2019-01-24T06:49:20.311Z,65.12
2019-01-24T06:51:48.819Z,65.15
2019-01-24T06:54:17.581Z,64.75
2019-01-24T06:56:46.379Z,64.86
2019-01-24T06:59:15.673Z,64.30
2019-01-24T07:01:44.071Z,64.02
2019-01-24T07:04:12.706Z,63.39
2019-01-24T07:06:41.116Z,63.31
2019-01-24T07:09:09.812Z,63.33
2019-01-24T07:11:38.453Z,63.23
2019-01-24T07:14:06.859Z,63.22
2019-01-24T07:16:35.266Z,62.80
2019-01-24T07:19:03.892Z,62.68
2019-01-24T07:21:32.522Z,64.21
2019-01-24T07:24:01.155Z,63.80
2019-01-24T07:26:29.551Z,63.69
2019-01-24T07:28:57.959Z,63.35
2019-01-24T07:31:26.349Z,63.60
2019-01-24T07:33:54.741Z,63.97
2019-01-24T07:36:23.153Z,63.77
2019-01-24T07:38:51.791Z,64.24
2019-01-24T07:41:20.199Z,63.80
2019-01-24T07:43:48.589Z,63.25
2019-01-24T07:46:16.981Z,62.87
2019-01-24T07:48:45.387Z,62.73
2019-01-24T07:51:13.795Z,62.80
2019-01-24T07:53:42.192Z,63.40
2019-01-24T07:56:10.602Z,63.35
2019-01-24T07:58:38.992Z,63.63
2019-01-24T08:01:07.709Z,63.78
2019-01-24T08:03:36.110Z,64.22
2019-01-24T08:06:09.092Z,63.61
2019-01-24T08:08:35.497Z,63.74
2019-01-24T08:11:04.202Z,64.80
2019-01-24T08:13:32.888Z,65.59
2019-01-24T08:16:01.766Z,65.10
2019-01-24T08:18:30.280Z,66.20
2019-01-24T08:20:58.712Z,65.49
2019-01-24T08:23:27.420Z,65.34
2019-01-24T08:25:55.813Z,65.94
2019-01-24T08:28:24.229Z,66.63
2019-01-24T08:30:52.633Z,67.03
2019-01-24T08:33:21.380Z,66.94
2019-01-24T08:35:50.134Z,67.27
2019-01-24T08:38:18.816Z,67.99
2019-01-24T08:40:47.387Z,67.90
2019-01-24T08:43:15.907Z,68.63
2019-01-24T08:45:44.592Z,68.55
2019-01-24T08:48:12.985Z,67.92
2019-01-24T08:50:41.736Z,68.37
2019-01-24T08:53:10.422Z,68.85
2019-01-24T08:55:39.728Z,68.51
2019-01-24T08:58:08.612Z,68.33
2019-01-24T09:00:37.023Z,68.80
2019-01-24T09:03:05.653Z,68.56
2019-01-24T09:05:34.289Z,68.56
2019-01-24T09:08:02.860Z,68.60
2019-01-24T09:10:34.022Z,69.73
2019-01-24T09:13:02.606Z,70.18
2019-01-24T09:15:31.882Z,70.44
2019-01-24T09:18:00.566Z,70.05
2019-01-24T09:20:29.249Z,70.08
2019-01-24T09:22:58.157Z,69.95
2019-01-24T09:25:26.598Z,70.09
2019-01-24T09:27:55.311Z,70.04
2019-01-24T09:30:26.240Z,70.03
2019-01-24T09:32:54.630Z,69.97
2019-01-24T09:35:24.198Z,69.70
2019-01-24T09:37:52.820Z,70.39
2019-01-24T09:40:23.040Z,70.02
2019-01-24T09:42:51.506Z,70.49
2019-01-24T09:45:28.007Z,69.58
2019-01-24T09:47:58.407Z,68.52
2019-01-24T09:50:28.260Z,68.13
2019-01-24T09:52:56.718Z,68.02
2019-01-24T09:55:25.458Z,68.14
2019-01-24T09:57:54.034Z,67.19
2019-01-24T10:00:27.901Z,66.28
2019-01-24T10:02:56.728Z,66.58
2019-01-24T10:05:25.713Z,67.42
2019-01-24T10:07:54.452Z,67.30
2019-01-24T10:10:27.734Z,66.94
2019-01-24T10:12:57.313Z,66.43
2019-01-24T10:15:25.868Z,66.15
2019-01-24T10:17:54.626Z,65.67
2019-01-24T10:20:27.343Z,65.26
2019-01-24T10:22:55.994Z,65.46
2019-01-24T10:25:32.882Z,65.38
2019-01-24T10:28:01.370Z,65.31
2019-01-24T10:30:29.835Z,64.96
2019-01-24T10:32:58.312Z,64.24
2019-01-24T10:35:26.818Z,64.54
2019-01-24T10:37:55.392Z,64.01
2019-01-24T10:40:29.057Z,63.59
2019-01-24T10:42:58.074Z,63.54
2019-01-24T10:45:26.838Z,63.60
2019-01-24T10:47:55.509Z,64.06
2019-01-24T10:50:26.536Z,63.79
2019-01-24T10:52:55.021Z,63.98
2019-01-24T10:55:25.809Z,64.29
2019-01-24T10:57:55.644Z,64.08
2019-01-24T11:00:30.298Z,63.90
2019-01-24T11:02:58.692Z,64.12
2019-01-24T11:05:27.415Z,64.39
2019-01-24T11:07:55.815Z,64.09
2019-01-24T11:10:24.590Z,64.45
2019-01-24T11:12:53.092Z,64.70
2019-01-24T11:15:24.033Z,64.99
2019-01-24T11:17:52.516Z,64.94
2019-01-24T11:20:21.302Z,65.05
2019-01-24T11:22:50.961Z,65.28
2019-01-24T11:25:24.751Z,65.73
2019-01-24T11:27:53.224Z,66.12
2019-01-24T11:30:27.207Z,65.81
2019-01-24T11:32:55.977Z,66.22
2019-01-24T11:35:30.233Z,66.66
2019-01-24T11:37:58.603Z,66.95
2019-01-24T11:40:27.139Z,66.99
2019-01-24T11:42:55.635Z,67.19
2019-01-24T11:45:33.071Z,67.39
2019-01-24T11:48:01.550Z,67.29
2019-01-24T11:50:29.954Z,67.25
2019-01-24T11:52:58.671Z,67.11
2019-01-24T11:55:27.092Z,67.32
2019-01-24T11:57:55.480Z,67.45
2019-01-24T12:00:31.335Z,67.56
2019-01-24T12:02:59.748Z,67.13
2019-01-24T12:05:28.559Z,66.89
2019-01-24T12:07:57.273Z,67.53
2019-01-24T12:10:27.813Z,68.00
2019-01-24T12:12:56.865Z,68.19
2019-01-24T12:15:27.313Z,68.73
2019-01-24T12:17:56.019Z,68.94
2019-01-24T12:20:25.470Z,68.68
2019-01-24T12:22:54.393Z,68.82
2019-01-24T12:25:24.201Z,69.22
2019-01-24T12:27:52.970Z,69.56
2019-01-24T12:30:27.630Z,69.74
2019-01-24T12:32:56.712Z,69.51
2019-01-24T12:35:25.172Z,69.18
2019-01-24T12:37:53.961Z,68.39
2019-01-24T12:40:22.749Z,68.21
2019-01-24T12:42:51.434Z,67.75
2019-01-24T12:45:28.477Z,68.44
2019-01-24T12:47:57.205Z,68.06
2019-01-24T12:50:25.618Z,68.00
2019-01-24T12:52:54.106Z,68.08
2019-01-24T12:55:22.859Z,67.99
2019-01-24T12:57:51.257Z,66.72
2019-01-24T13:00:22.004Z,66.84
2019-01-24T13:02:50.415Z,66.71
2019-01-24T13:05:18.952Z,66.46
2019-01-24T13:07:47.371Z,66.52
2019-01-24T13:10:20.413Z,66.28
2019-01-24T13:12:50.007Z,66.96
2019-01-24T13:15:23.584Z,67.14
2019-01-24T13:17:51.998Z,67.23
2019-01-24T13:20:20.565Z,67.17
2019-01-24T13:22:48.991Z,67.35
2019-01-24T13:25:19.994Z,67.18
2019-01-24T13:27:48.666Z,66.72
2019-01-24T13:30:20.098Z,66.27
2019-01-24T13:32:48.660Z,65.98
2019-01-24T13:35:17.603Z,65.93
2019-01-24T13:37:46.006Z,65.49
2019-01-24T13:40:22.928Z,65.79
2019-01-24T13:42:51.565Z,65.75
2019-01-24T13:45:22.499Z,65.57
2019-01-24T13:47:51.061Z,64.62
2019-01-24T13:50:19.684Z,65.07
2019-01-24T13:52:48.151Z,65.53
2019-01-24T13:55:16.571Z,65.57
2019-01-24T13:57:45.026Z,65.27
2019-01-24T14:00:19.204Z,65.44
2019-01-24T14:02:49.736Z,65.22
2019-01-24T14:05:19.655Z,65.55
2019-01-24T14:07:48.075Z,65.90
2019-01-24T14:10:18.046Z,66.11
2019-01-24T14:12:46.735Z,65.60
2019-01-24T14:15:19.495Z,66.64
2019-01-24T14:17:48.410Z,66.79
2019-01-24T14:20:21.630Z,66.43
2019-01-24T14:22:50.300Z,66.94
2019-01-24T14:25:20.378Z,67.44
2019-01-24T14:27:49.028Z,67.39
2019-01-24T14:30:28.140Z,66.56
2019-01-24T14:32:58.847Z,66.27
2019-01-24T14:35:27.406Z,65.94
2019-01-24T14:37:55.873Z,66.30
2019-01-24T14:40:24.269Z,66.07
2019-01-24T14:42:52.693Z,66.08
2019-01-24T14:45:27.166Z,66.08
2019-01-24T14:47:55.971Z,65.69
2019-01-24T14:50:27.154Z,65.15
2019-01-24T14:52:55.942Z,64.79
2019-01-24T14:55:24.347Z,63.98
2019-01-24T14:57:53.139Z,64.40
2019-01-24T15:00:30.431Z,64.33
2019-01-24T15:02:59.011Z,64.36
2019-01-24T15:05:27.500Z,64.36
2019-01-24T15:07:55.985Z,64.45
2019-01-24T15:10:25.134Z,64.17
2019-01-24T15:12:53.540Z,63.11
2019-01-24T15:15:23.093Z,63.95
2019-01-24T15:17:52.035Z,63.93
2019-01-24T15:20:21.072Z,63.85
2019-01-24T15:22:49.783Z,63.23
2019-01-24T15:25:20.400Z,63.35
2019-01-24T15:27:48.865Z,63.51
2019-01-24T15:30:26.284Z,63.78
2019-01-24T15:32:54.986Z,63.71
2019-01-24T15:35:23.757Z,63.69
2019-01-24T15:37:54.676Z,63.19
2019-01-24T15:40:29.844Z,63.35
2019-01-24T15:42:58.624Z,63.18
2019-01-24T15:45:27.022Z,64.09
2019-01-24T15:47:55.651Z,63.63
2019-01-24T15:50:25.065Z,63.60
2019-01-24T15:52:53.860Z,63.57
2019-01-24T15:55:22.293Z,63.73
2019-01-24T15:57:50.879Z,63.59
2019-01-24T16:00:30.423Z,63.13
2019-01-24T16:02:59.020Z,63.77
2019-01-24T16:05:27.793Z,63.18
2019-01-24T16:08:01.630Z,63.44
2019-01-24T16:10:26.973Z,63.33
2019-01-24T16:12:55.764Z,63.70
2019-01-24T16:15:30.182Z,64.10
2019-01-24T16:17:58.873Z,64.21
2019-01-24T16:20:29.095Z,63.94
2019-01-24T16:22:57.491Z,64.17
2019-01-24T16:25:28.837Z,64.36
2019-01-24T16:27:57.230Z,64.04
2019-01-24T16:30:28.050Z,65.42
2019-01-24T16:32:56.748Z,66.20
2019-01-24T16:35:25.790Z,65.00
2019-01-24T16:37:54.841Z,64.55
2019-01-24T16:40:25.558Z,63.83
2019-01-24T16:42:55.170Z,63.78
2019-01-24T16:45:26.010Z,63.78
2019-01-24T16:47:55.081Z,63.33
2019-01-24T16:50:25.205Z,63.42
2019-01-24T16:52:54.052Z,63.40
2019-01-24T16:55:22.683Z,62.81
2019-01-24T16:57:53.507Z,62.51
2019-01-24T17:00:30.496Z,62.71
2019-01-24T17:02:59.901Z,62.87
2019-01-24T17:05:29.058Z,62.98
2019-01-24T17:07:57.658Z,62.61
2019-01-24T17:10:29.029Z,62.27
2019-01-24T17:12:57.722Z,62.42
2019-01-24T17:15:27.066Z,61.98
2019-01-24T17:17:55.482Z,62.06
2019-01-24T17:20:26.796Z,62.58
2019-01-24T17:22:55.466Z,62.81
2019-01-24T17:25:25.813Z,63.42
2019-01-24T17:27:54.754Z,63.87
2019-01-24T17:30:26.302Z,62.46
2019-01-24T17:32:55.086Z,63.13
2019-01-24T17:35:23.548Z,63.28
2019-01-24T17:37:52.022Z,63.29
2019-01-24T17:40:28.883Z,63.24
2019-01-24T17:42:57.394Z,63.31
2019-01-24T17:45:26.323Z,63.28
2019-01-24T17:47:55.016Z,63.27
2019-01-24T17:50:23.976Z,63.18
2019-01-24T17:52:52.784Z,62.96
2019-01-24T17:55:30.142Z,62.94
2019-01-24T17:57:58.846Z,62.34
2019-01-24T18:00:35.326Z,62.22
2019-01-24T18:03:04.272Z,62.39
2019-01-24T18:05:32.671Z,62.70
2019-01-24T18:08:01.124Z,63.04
2019-01-24T18:10:31.078Z,63.17
2019-01-24T18:12:59.546Z,63.61
2019-01-24T18:15:37.487Z,64.40
2019-01-24T18:18:09.234Z,64.23
2019-01-24T18:20:38.768Z,64.60
2019-01-24T18:23:09.336Z,64.02
2019-01-24T18:25:38.172Z,64.07
2019-01-24T18:28:08.605Z,63.64
2019-01-24T18:30:37.019Z,63.83
2019-01-24T18:33:06.072Z,63.88
2019-01-24T18:35:34.469Z,63.87
2019-01-24T18:38:03.033Z,63.97
2019-01-24T18:40:31.886Z,63.79
2019-01-24T18:43:00.451Z,63.74
2019-01-24T18:45:35.316Z,63.70
2019-01-24T18:48:03.891Z,62.61
2019-01-24T18:50:32.366Z,62.63
2019-01-24T18:53:01.029Z,62.90
2019-01-24T18:55:29.445Z,62.93
2019-01-24T18:57:58.726Z,63.33
2019-01-24T19:00:29.187Z,63.20
2019-01-24T19:02:57.591Z,63.31
2019-01-24T19:05:25.985Z,63.41
2019-01-24T19:07:54.725Z,63.27
2019-01-24T19:10:23.137Z,63.50
2019-01-24T19:12:51.604Z,63.71
2019-01-24T19:15:22.184Z,64.00
2019-01-24T19:17:50.566Z,63.98
2019-01-24T19:20:19.146Z,64.24
2019-01-24T19:22:47.608Z,64.38
2019-01-24T19:25:18.489Z,64.54
2019-01-24T19:27:46.895Z,64.45
2019-01-24T19:30:27.131Z,64.56
2019-01-24T19:32:55.812Z,64.49
2019-01-24T19:35:24.299Z,64.09
2019-01-24T19:37:52.823Z,63.91
2019-01-24T19:40:23.819Z,63.66
2019-01-24T19:42:52.206Z,63.59
2019-01-24T19:45:27.376Z,63.78
2019-01-24T19:47:56.026Z,63.83
2019-01-24T19:50:29.887Z,63.81
2019-01-24T19:52:58.923Z,63.61
2019-01-24T19:55:27.674Z,63.57
2019-01-24T19:57:56.950Z,63.61
2019-01-24T20:00:27.597Z,63.75
2019-01-24T20:02:56.242Z,63.75
2019-01-24T20:05:24.872Z,63.81
2019-01-24T20:07:54.101Z,63.89
2019-01-24T20:10:30.089Z,63.70
2019-01-24T20:12:58.770Z,63.76
2019-01-24T20:15:29.409Z,63.86
2019-01-24T20:17:58.147Z,63.80
2019-01-24T20:20:26.920Z,63.85
2019-01-24T20:22:55.545Z,63.86
2019-01-24T20:25:29.566Z,63.74
2019-01-24T20:27:58.038Z,63.62
2019-01-24T20:30:28.822Z,63.69
2019-01-24T20:32:57.866Z,63.80
2019-01-24T20:35:32.348Z,63.92
2019-01-24T20:38:00.834Z,64.05
2019-01-24T20:40:29.435Z,64.20
2019-01-24T20:42:57.849Z,64.17
2019-01-24T20:45:26.245Z,63.85
2019-01-24T20:47:54.662Z,63.75
2019-01-24T20:50:23.050Z,64.02
2019-01-24T20:52:51.473Z,64.06
2019-01-24T20:55:19.878Z,64.33
2019-01-24T20:57:48.269Z,64.45
2019-01-24T21:00:24.574Z,64.50
2019-01-24T21:02:54.409Z,64.62
2019-01-24T21:05:24.147Z,64.43
2019-01-24T21:07:52.924Z,64.35
2019-01-24T21:10:24.193Z,64.24
2019-01-24T21:12:52.793Z,64.21
2019-01-24T21:15:22.329Z,64.03
2019-01-24T21:17:51.155Z,63.96
2019-01-24T21:20:22.200Z,64.02
2019-01-24T21:22:50.671Z,64.02
2019-01-24T21:25:21.021Z,64.22
2019-01-24T21:27:49.643Z,64.22
2019-01-24T21:30:20.837Z,64.23
2019-01-24T21:32:49.250Z,64.36
2019-01-24T21:35:18.179Z,64.57
2019-01-24T21:37:46.591Z,64.62
2019-01-24T21:40:17.868Z,64.67
2019-01-24T21:42:46.337Z,64.73
2019-01-24T21:45:20.612Z,64.53
2019-01-24T21:47:49.022Z,64.45
2019-01-24T21:50:19.755Z,64.62
2019-01-24T21:52:48.502Z,64.70
2019-01-24T21:55:18.011Z,64.59
2019-01-24T21:57:46.577Z,64.50
2019-01-24T22:00:25.943Z,64.59
2019-01-24T22:02:54.428Z,65.00
2019-01-24T22:05:24.161Z,65.15
2019-01-24T22:07:52.563Z,65.24
2019-01-24T22:10:26.758Z,65.33
2019-01-24T22:12:55.233Z,65.15
2019-01-24T22:15:26.109Z,65.19
2019-01-24T22:17:54.568Z,65.20
2019-01-24T22:20:22.978Z,65.55
2019-01-24T22:22:51.378Z,65.72
2019-01-24T22:25:25.497Z,65.84
2019-01-24T22:27:54.171Z,65.24
2019-01-24T22:30:27.044Z,65.61
2019-01-24T22:32:55.439Z,65.89
2019-01-24T22:35:24.123Z,65.96
2019-01-24T22:37:52.703Z,66.12
2019-01-24T22:40:21.272Z,65.79
2019-01-24T22:42:50.025Z,65.93
2019-01-24T22:45:21.168Z,66.15
2019-01-24T22:47:49.914Z,66.25
2019-01-24T22:50:18.387Z,66.37
2019-01-24T22:52:47.296Z,66.37
2019-01-24T22:55:16.579Z,66.17
2019-01-24T22:57:45.385Z,66.07
2019-01-24T23:00:36.387Z,66.15
2019-01-24T23:03:05.749Z,65.58
2019-01-24T23:05:34.144Z,65.55
2019-01-24T23:08:02.568Z,65.78
2019-01-24T23:10:31.329Z,65.88
2019-01-24T23:13:00.122Z,65.68
2019-01-24T23:15:28.519Z,65.69
2019-01-24T23:17:57.233Z,65.66
2019-01-24T23:20:25.677Z,66.03
2019-01-24T23:22:54.064Z,66.17
2019-01-24T23:25:22.475Z,66.03
2019-01-24T23:27:50.981Z,66.08
2019-01-24T23:30:19.465Z,65.99
2019-01-24T23:32:48.169Z,66.00
2019-01-24T23:35:17.265Z,65.84
2019-01-24T23:37:52.198Z,65.90
2019-01-24T23:40:15.999Z,65.77
2019-01-24T23:42:44.359Z,65.84
2019-01-24T23:45:13.142Z,65.77
2019-01-24T23:47:41.823Z,65.46
2019-01-24T23:50:10.612Z,65.94
2019-01-24T23:52:39.064Z,65.86
2019-01-24T23:55:08.049Z,65.57
2019-01-24T23:57:36.772Z,65.67
